sensor_id;sensor_type;location;lat;lon;timestamp;P1;durP1;ratioP1;P2;durP2;ratioP2
39218;SDS011;24934;52.752;6.964;2023-05-07T00:01:27;25.90;;;21.30;;
39218;SDS011;24934;52.752;6.964;2023-05-07T00:03:54;28.50;;;22.25;;
39218;SDS011;24934;52.752;6.964;2023-05-07T00:06:20;25.13;;;21.92;;
39218;SDS011;24934;52.752;6.964;2023-05-07T00:08:46;31.25;;;24.15;;
39218;SDS011;24934;52.752;6.964;2023-05-07T00:11:16;31.85;;;24.77;;
39218;SDS011;24934;52.752;6.964;2023-05-07T00:13:42;29.77;;;23.88;;
39218;SDS011;24934;52.752;6.964;2023-05-07T00:16:08;29.85;;;24.42;;
39218;SDS011;24934;52.752;6.964;2023-05-07T00:18:33;31.77;;;25.25;;
39218;SDS011;24934;52.752;6.964;2023-05-07T00:20:59;33.15;;;24.25;;
39218;SDS011;24934;52.752;6.964;2023-05-07T00:23:25;32.35;;;24.95;;
39218;SDS011;24934;52.752;6.964;2023-05-07T00:25:50;30.08;;;25.08;;
39218;SDS011;24934;52.752;6.964;2023-05-07T00:28:16;32.40;;;25.25;;
39218;SDS011;24934;52.752;6.964;2023-05-07T00:30:42;32.10;;;25.45;;
39218;SDS011;24934;52.752;6.964;2023-05-07T00:33:07;32.80;;;26.08;;
39218;SDS011;24934;52.752;6.964;2023-05-07T00:35:33;29.60;;;24.38;;
39218;SDS011;24934;52.752;6.964;2023-05-07T00:37:59;31.52;;;25.63;;
39218;SDS011;24934;52.752;6.964;2023-05-07T00:40:24;33.13;;;25.67;;
39218;SDS011;24934;52.752;6.964;2023-05-07T00:42:50;32.08;;;25.33;;
39218;SDS011;24934;52.752;6.964;2023-05-07T00:45:24;31.13;;;25.10;;
39218;SDS011;24934;52.752;6.964;2023-05-07T00:47:54;30.70;;;24.95;;
39218;SDS011;24934;52.752;6.964;2023-05-07T00:50:24;37.55;;;27.25;;
39218;SDS011;24934;52.752;6.964;2023-05-07T00:52:52;32.25;;;25.95;;
39218;SDS011;24934;52.752;6.964;2023-05-07T00:55:18;32.75;;;26.17;;
39218;SDS011;24934;52.752;6.964;2023-05-07T00:57:45;34.58;;;26.08;;
39218;SDS011;24934;52.752;6.964;2023-05-07T01:00:12;33.70;;;26.88;;
39218;SDS011;24934;52.752;6.964;2023-05-07T01:02:40;35.30;;;28.08;;
39218;SDS011;24934;52.752;6.964;2023-05-07T01:05:07;35.17;;;27.13;;
39218;SDS011;24934;52.752;6.964;2023-05-07T01:07:36;38.97;;;28.50;;
39218;SDS011;24934;52.752;6.964;2023-05-07T01:10:04;41.25;;;29.55;;
39218;SDS011;24934;52.752;6.964;2023-05-07T01:12:31;39.50;;;29.33;;
39218;SDS011;24934;52.752;6.964;2023-05-07T01:14:57;38.53;;;29.27;;
39218;SDS011;24934;52.752;6.964;2023-05-07T01:17:23;36.63;;;29.40;;
39218;SDS011;24934;52.752;6.964;2023-05-07T01:19:49;40.78;;;30.63;;
39218;SDS011;24934;52.752;6.964;2023-05-07T01:22:16;39.95;;;30.58;;
39218;SDS011;24934;52.752;6.964;2023-05-07T01:24:46;43.75;;;32.90;;
39218;SDS011;24934;52.752;6.964;2023-05-07T01:27:15;41.37;;;31.57;;
39218;SDS011;24934;52.752;6.964;2023-05-07T01:29:40;44.05;;;31.75;;
39218;SDS011;24934;52.752;6.964;2023-05-07T01:32:06;47.73;;;32.47;;
39218;SDS011;24934;52.752;6.964;2023-05-07T01:34:32;42.93;;;33.13;;
39218;SDS011;24934;52.752;6.964;2023-05-07T01:36:59;46.33;;;33.50;;
39218;SDS011;24934;52.752;6.964;2023-05-07T01:39:26;45.27;;;32.80;;
39218;SDS011;24934;52.752;6.964;2023-05-07T01:41:54;48.28;;;34.88;;
39218;SDS011;24934;52.752;6.964;2023-05-07T01:44:21;51.60;;;36.27;;
39218;SDS011;24934;52.752;6.964;2023-05-07T01:46:48;53.10;;;35.63;;
39218;SDS011;24934;52.752;6.964;2023-05-07T01:49:14;54.72;;;36.40;;
39218;SDS011;24934;52.752;6.964;2023-05-07T01:51:41;50.87;;;34.87;;
39218;SDS011;24934;52.752;6.964;2023-05-07T01:54:07;51.77;;;36.23;;
39218;SDS011;24934;52.752;6.964;2023-05-07T01:56:33;48.63;;;35.83;;
39218;SDS011;24934;52.752;6.964;2023-05-07T01:59:05;54.30;;;36.20;;
39218;SDS011;24934;52.752;6.964;2023-05-07T02:01:33;51.83;;;36.67;;
39218;SDS011;24934;52.752;6.964;2023-05-07T02:03:59;53.30;;;37.63;;
39218;SDS011;24934;52.752;6.964;2023-05-07T02:06:25;52.27;;;36.53;;
39218;SDS011;24934;52.752;6.964;2023-05-07T02:08:50;58.90;;;38.70;;
39218;SDS011;24934;52.752;6.964;2023-05-07T02:11:27;52.17;;;36.67;;
39218;SDS011;24934;52.752;6.964;2023-05-07T02:13:53;59.03;;;40.00;;
39218;SDS011;24934;52.752;6.964;2023-05-07T02:16:18;57.60;;;39.57;;
39218;SDS011;24934;52.752;6.964;2023-05-07T02:18:47;55.07;;;38.83;;
39218;SDS011;24934;52.752;6.964;2023-05-07T02:21:13;56.75;;;39.00;;
39218;SDS011;24934;52.752;6.964;2023-05-07T02:23:46;58.67;;;39.07;;
39218;SDS011;24934;52.752;6.964;2023-05-07T02:26:13;54.20;;;38.77;;
39218;SDS011;24934;52.752;6.964;2023-05-07T02:28:39;60.30;;;40.00;;
39218;SDS011;24934;52.752;6.964;2023-05-07T02:31:05;57.53;;;39.97;;
39218;SDS011;24934;52.752;6.964;2023-05-07T02:33:31;59.63;;;39.67;;
39218;SDS011;24934;52.752;6.964;2023-05-07T02:35:57;65.77;;;42.07;;
39218;SDS011;24934;52.752;6.964;2023-05-07T02:38:30;60.07;;;41.57;;
39218;SDS011;24934;52.752;6.964;2023-05-07T02:40:55;62.80;;;42.17;;
39218;SDS011;24934;52.752;6.964;2023-05-07T02:43:21;63.23;;;42.33;;
39218;SDS011;24934;52.752;6.964;2023-05-07T02:45:47;68.03;;;43.03;;
39218;SDS011;24934;52.752;6.964;2023-05-07T02:48:15;61.13;;;42.90;;
39218;SDS011;24934;52.752;6.964;2023-05-07T02:50:40;64.90;;;43.73;;
39218;SDS011;24934;52.752;6.964;2023-05-07T02:53:06;64.67;;;42.37;;
39218;SDS011;24934;52.752;6.964;2023-05-07T02:55:32;64.93;;;41.77;;
39218;SDS011;24934;52.752;6.964;2023-05-07T02:57:58;58.80;;;43.53;;
39218;SDS011;24934;52.752;6.964;2023-05-07T03:00:23;62.03;;;43.83;;
39218;SDS011;24934;52.752;6.964;2023-05-07T03:02:49;61.80;;;41.57;;
39218;SDS011;24934;52.752;6.964;2023-05-07T03:05:15;68.10;;;43.50;;
39218;SDS011;24934;52.752;6.964;2023-05-07T03:07:41;63.60;;;43.03;;
39218;SDS011;24934;52.752;6.964;2023-05-07T03:10:10;67.93;;;42.63;;
39218;SDS011;24934;52.752;6.964;2023-05-07T03:12:38;62.40;;;41.77;;
39218;SDS011;24934;52.752;6.964;2023-05-07T03:15:04;66.17;;;44.20;;
39218;SDS011;24934;52.752;6.964;2023-05-07T03:17:30;67.47;;;43.23;;
39218;SDS011;24934;52.752;6.964;2023-05-07T03:19:55;64.53;;;43.40;;
39218;SDS011;24934;52.752;6.964;2023-05-07T03:22:21;61.37;;;43.13;;
39218;SDS011;24934;52.752;6.964;2023-05-07T03:24:47;60.53;;;41.40;;
39218;SDS011;24934;52.752;6.964;2023-05-07T03:27:12;63.03;;;41.70;;
39218;SDS011;24934;52.752;6.964;2023-05-07T03:29:38;59.90;;;41.73;;
39218;SDS011;24934;52.752;6.964;2023-05-07T03:32:04;61.20;;;42.60;;
39218;SDS011;24934;52.752;6.964;2023-05-07T03:34:32;62.23;;;42.37;;
39218;SDS011;24934;52.752;6.964;2023-05-07T03:36:58;58.50;;;41.20;;
39218;SDS011;24934;52.752;6.964;2023-05-07T03:39:23;59.87;;;42.63;;
39218;SDS011;24934;52.752;6.964;2023-05-07T03:41:49;58.97;;;41.70;;
39218;SDS011;24934;52.752;6.964;2023-05-07T03:44:14;60.77;;;41.70;;
39218;SDS011;24934;52.752;6.964;2023-05-07T03:46:40;58.07;;;41.53;;
39218;SDS011;24934;52.752;6.964;2023-05-07T03:49:06;56.30;;;40.90;;
39218;SDS011;24934;52.752;6.964;2023-05-07T03:51:31;57.53;;;40.03;;
39218;SDS011;24934;52.752;6.964;2023-05-07T03:54:01;54.70;;;39.22;;
39218;SDS011;24934;52.752;6.964;2023-05-07T03:56:26;55.83;;;39.87;;
39218;SDS011;24934;52.752;6.964;2023-05-07T03:58:52;54.93;;;40.23;;
39218;SDS011;24934;52.752;6.964;2023-05-07T04:01:18;55.70;;;39.40;;
39218;SDS011;24934;52.752;6.964;2023-05-07T04:03:44;57.13;;;41.17;;
39218;SDS011;24934;52.752;6.964;2023-05-07T04:06:09;54.93;;;40.20;;
39218;SDS011;24934;52.752;6.964;2023-05-07T04:08:35;56.70;;;39.73;;
39218;SDS011;24934;52.752;6.964;2023-05-07T04:11:01;51.10;;;38.57;;
39218;SDS011;24934;52.752;6.964;2023-05-07T04:13:30;56.20;;;38.47;;
39218;SDS011;24934;52.752;6.964;2023-05-07T04:16:00;53.23;;;38.47;;
39218;SDS011;24934;52.752;6.964;2023-05-07T04:18:27;54.97;;;39.30;;
39218;SDS011;24934;52.752;6.964;2023-05-07T04:20:52;49.43;;;35.70;;
39218;SDS011;24934;52.752;6.964;2023-05-07T04:23:18;51.77;;;36.77;;
39218;SDS011;24934;52.752;6.964;2023-05-07T04:25:47;51.13;;;36.33;;
39218;SDS011;24934;52.752;6.964;2023-05-07T04:28:12;49.90;;;36.67;;
39218;SDS011;24934;52.752;6.964;2023-05-07T04:30:38;50.83;;;36.37;;
39218;SDS011;24934;52.752;6.964;2023-05-07T04:33:04;51.70;;;36.50;;
39218;SDS011;24934;52.752;6.964;2023-05-07T04:35:31;50.60;;;36.67;;
39218;SDS011;24934;52.752;6.964;2023-05-07T04:37:57;52.03;;;36.37;;
39218;SDS011;24934;52.752;6.964;2023-05-07T04:40:23;47.33;;;35.77;;
39218;SDS011;24934;52.752;6.964;2023-05-07T04:42:48;49.93;;;36.50;;
39218;SDS011;24934;52.752;6.964;2023-05-07T04:45:14;47.80;;;35.40;;
39218;SDS011;24934;52.752;6.964;2023-05-07T04:47:40;49.13;;;35.93;;
39218;SDS011;24934;52.752;6.964;2023-05-07T04:50:06;49.50;;;35.27;;
39218;SDS011;24934;52.752;6.964;2023-05-07T04:52:33;48.17;;;35.93;;
39218;SDS011;24934;52.752;6.964;2023-05-07T04:54:59;51.13;;;35.80;;
39218;SDS011;24934;52.752;6.964;2023-05-07T04:57:25;47.30;;;34.83;;
39218;SDS011;24934;52.752;6.964;2023-05-07T04:59:51;46.47;;;33.90;;
39218;SDS011;24934;52.752;6.964;2023-05-07T05:02:17;45.60;;;34.00;;
39218;SDS011;24934;52.752;6.964;2023-05-07T05:04:45;45.90;;;34.77;;
39218;SDS011;24934;52.752;6.964;2023-05-07T05:07:14;49.55;;;34.40;;
39218;SDS011;24934;52.752;6.964;2023-05-07T05:09:39;47.00;;;35.07;;
39218;SDS011;24934;52.752;6.964;2023-05-07T05:12:05;47.60;;;34.60;;
39218;SDS011;24934;52.752;6.964;2023-05-07T05:14:32;45.77;;;33.53;;
39218;SDS011;24934;52.752;6.964;2023-05-07T05:16:57;48.20;;;35.33;;
39218;SDS011;24934;52.752;6.964;2023-05-07T05:19:25;46.63;;;34.93;;
39218;SDS011;24934;52.752;6.964;2023-05-07T05:21:51;47.83;;;35.63;;
39218;SDS011;24934;52.752;6.964;2023-05-07T05:24:17;46.33;;;33.27;;
39218;SDS011;24934;52.752;6.964;2023-05-07T05:26:43;47.47;;;34.70;;
39218;SDS011;24934;52.752;6.964;2023-05-07T05:29:08;46.30;;;34.47;;
39218;SDS011;24934;52.752;6.964;2023-05-07T05:31:34;47.63;;;34.67;;
39218;SDS011;24934;52.752;6.964;2023-05-07T05:34:02;52.07;;;34.17;;
39218;SDS011;24934;52.752;6.964;2023-05-07T05:36:28;48.60;;;35.30;;
39218;SDS011;24934;52.752;6.964;2023-05-07T05:38:57;46.63;;;33.73;;
39218;SDS011;24934;52.752;6.964;2023-05-07T05:41:23;49.90;;;35.93;;
39218;SDS011;24934;52.752;6.964;2023-05-07T05:43:48;46.50;;;33.97;;
39218;SDS011;24934;52.752;6.964;2023-05-07T05:46:14;46.97;;;35.20;;
39218;SDS011;24934;52.752;6.964;2023-05-07T05:48:40;46.93;;;34.90;;
39218;SDS011;24934;52.752;6.964;2023-05-07T05:51:06;48.20;;;34.42;;
39218;SDS011;24934;52.752;6.964;2023-05-07T05:53:31;46.47;;;34.72;;
39218;SDS011;24934;52.752;6.964;2023-05-07T05:55:57;47.80;;;35.25;;
39218;SDS011;24934;52.752;6.964;2023-05-07T05:58:22;48.60;;;35.13;;
39218;SDS011;24934;52.752;6.964;2023-05-07T06:00:48;52.25;;;36.13;;
39218;SDS011;24934;52.752;6.964;2023-05-07T06:03:17;48.80;;;34.78;;
39218;SDS011;24934;52.752;6.964;2023-05-07T06:05:45;49.97;;;35.70;;
39218;SDS011;24934;52.752;6.964;2023-05-07T06:08:11;49.67;;;36.00;;
39218;SDS011;24934;52.752;6.964;2023-05-07T06:10:37;50.83;;;36.33;;
39218;SDS011;24934;52.752;6.964;2023-05-07T06:13:02;53.75;;;36.47;;
39218;SDS011;24934;52.752;6.964;2023-05-07T06:15:28;50.95;;;35.80;;
39218;SDS011;24934;52.752;6.964;2023-05-07T06:17:53;47.20;;;35.63;;
39218;SDS011;24934;52.752;6.964;2023-05-07T06:20:22;49.88;;;35.50;;
39218;SDS011;24934;52.752;6.964;2023-05-07T06:22:48;46.90;;;33.85;;
39218;SDS011;24934;52.752;6.964;2023-05-07T06:25:14;50.50;;;35.28;;
39218;SDS011;24934;52.752;6.964;2023-05-07T06:27:40;52.00;;;36.85;;
39218;SDS011;24934;52.752;6.964;2023-05-07T06:30:06;50.15;;;35.58;;
39218;SDS011;24934;52.752;6.964;2023-05-07T06:32:32;50.53;;;34.95;;
39218;SDS011;24934;52.752;6.964;2023-05-07T06:34:58;54.15;;;37.55;;
39218;SDS011;24934;52.752;6.964;2023-05-07T06:37:23;50.70;;;36.90;;
39218;SDS011;24934;52.752;6.964;2023-05-07T06:39:49;51.95;;;35.53;;
39218;SDS011;24934;52.752;6.964;2023-05-07T06:42:15;53.72;;;37.40;;
39218;SDS011;24934;52.752;6.964;2023-05-07T06:44:41;55.88;;;37.80;;
39218;SDS011;24934;52.752;6.964;2023-05-07T06:47:06;54.25;;;36.42;;
39218;SDS011;24934;52.752;6.964;2023-05-07T06:49:32;52.85;;;36.58;;
39218;SDS011;24934;52.752;6.964;2023-05-07T06:51:58;52.80;;;36.28;;
39218;SDS011;24934;52.752;6.964;2023-05-07T06:54:23;47.78;;;34.97;;
39218;SDS011;24934;52.752;6.964;2023-05-07T06:56:49;54.17;;;37.40;;
39218;SDS011;24934;52.752;6.964;2023-05-07T06:59:15;55.00;;;35.88;;
39218;SDS011;24934;52.752;6.964;2023-05-07T07:01:41;51.20;;;35.35;;
39218;SDS011;24934;52.752;6.964;2023-05-07T07:04:09;50.03;;;36.22;;
39218;SDS011;24934;52.752;6.964;2023-05-07T07:06:35;49.15;;;35.55;;
39218;SDS011;24934;52.752;6.964;2023-05-07T07:09:01;49.63;;;35.63;;
39218;SDS011;24934;52.752;6.964;2023-05-07T07:11:27;53.60;;;36.40;;
39218;SDS011;24934;52.752;6.964;2023-05-07T07:13:52;49.80;;;36.83;;
39218;SDS011;24934;52.752;6.964;2023-05-07T07:16:19;48.58;;;36.75;;
39218;SDS011;24934;52.752;6.964;2023-05-07T07:18:46;49.25;;;35.13;;
39218;SDS011;24934;52.752;6.964;2023-05-07T07:21:11;49.63;;;35.22;;
39218;SDS011;24934;52.752;6.964;2023-05-07T07:23:39;50.53;;;35.75;;
39218;SDS011;24934;52.752;6.964;2023-05-07T07:26:05;50.45;;;35.10;;
39218;SDS011;24934;52.752;6.964;2023-05-07T07:28:33;49.92;;;34.90;;
39218;SDS011;24934;52.752;6.964;2023-05-07T07:30:59;50.50;;;36.15;;
39218;SDS011;24934;52.752;6.964;2023-05-07T07:33:25;47.45;;;34.95;;
39218;SDS011;24934;52.752;6.964;2023-05-07T07:35:50;47.97;;;34.03;;
39218;SDS011;24934;52.752;6.964;2023-05-07T07:38:16;48.35;;;35.72;;
39218;SDS011;24934;52.752;6.964;2023-05-07T07:40:41;51.35;;;35.80;;
39218;SDS011;24934;52.752;6.964;2023-05-07T07:43:08;51.70;;;35.75;;
39218;SDS011;24934;52.752;6.964;2023-05-07T07:45:34;50.47;;;34.67;;
39218;SDS011;24934;52.752;6.964;2023-05-07T07:48:00;47.25;;;35.95;;
39218;SDS011;24934;52.752;6.964;2023-05-07T07:50:25;44.00;;;34.42;;
39218;SDS011;24934;52.752;6.964;2023-05-07T07:52:51;48.17;;;33.88;;
39218;SDS011;24934;52.752;6.964;2023-05-07T07:55:19;47.08;;;32.20;;
39218;SDS011;24934;52.752;6.964;2023-05-07T07:57:47;44.42;;;32.83;;
39218;SDS011;24934;52.752;6.964;2023-05-07T08:00:14;45.53;;;32.55;;
39218;SDS011;24934;52.752;6.964;2023-05-07T08:02:40;45.30;;;33.67;;
39218;SDS011;24934;52.752;6.964;2023-05-07T08:05:06;43.45;;;32.95;;
39218;SDS011;24934;52.752;6.964;2023-05-07T08:07:32;44.25;;;32.30;;
39218;SDS011;24934;52.752;6.964;2023-05-07T08:09:58;43.72;;;32.53;;
39218;SDS011;24934;52.752;6.964;2023-05-07T08:12:23;44.47;;;32.15;;
39218;SDS011;24934;52.752;6.964;2023-05-07T08:14:49;41.13;;;31.92;;
39218;SDS011;24934;52.752;6.964;2023-05-07T08:17:15;36.15;;;29.60;;
39218;SDS011;24934;52.752;6.964;2023-05-07T08:19:41;45.83;;;32.08;;
39218;SDS011;24934;52.752;6.964;2023-05-07T08:22:08;42.22;;;30.98;;
39218;SDS011;24934;52.752;6.964;2023-05-07T08:24:35;39.65;;;31.02;;
39218;SDS011;24934;52.752;6.964;2023-05-07T08:27:01;38.70;;;30.05;;
39218;SDS011;24934;52.752;6.964;2023-05-07T08:29:27;39.85;;;30.38;;
39218;SDS011;24934;52.752;6.964;2023-05-07T08:31:52;38.78;;;30.17;;
39218;SDS011;24934;52.752;6.964;2023-05-07T08:34:18;37.10;;;29.33;;
39218;SDS011;24934;52.752;6.964;2023-05-07T08:36:44;33.72;;;28.40;;
39218;SDS011;24934;52.752;6.964;2023-05-07T08:39:13;38.67;;;28.70;;
39218;SDS011;24934;52.752;6.964;2023-05-07T08:41:40;39.65;;;30.08;;
39218;SDS011;24934;52.752;6.964;2023-05-07T08:44:11;37.58;;;29.60;;
39218;SDS011;24934;52.752;6.964;2023-05-07T08:46:43;34.85;;;28.13;;
39218;SDS011;24934;52.752;6.964;2023-05-07T08:49:11;34.53;;;28.23;;
39218;SDS011;24934;52.752;6.964;2023-05-07T08:51:40;34.47;;;27.48;;
39218;SDS011;24934;52.752;6.964;2023-05-07T08:54:07;35.20;;;27.85;;
39218;SDS011;24934;52.752;6.964;2023-05-07T08:56:34;31.42;;;27.75;;
39218;SDS011;24934;52.752;6.964;2023-05-07T08:59:02;31.85;;;27.10;;
39218;SDS011;24934;52.752;6.964;2023-05-07T09:01:30;31.63;;;26.90;;
39218;SDS011;24934;52.752;6.964;2023-05-07T09:03:56;32.85;;;27.23;;
39218;SDS011;24934;52.752;6.964;2023-05-07T09:06:22;29.95;;;26.50;;
39218;SDS011;24934;52.752;6.964;2023-05-07T09:08:50;31.10;;;27.50;;
39218;SDS011;24934;52.752;6.964;2023-05-07T09:11:23;28.65;;;25.08;;
39218;SDS011;24934;52.752;6.964;2023-05-07T09:13:53;29.50;;;25.75;;
39218;SDS011;24934;52.752;6.964;2023-05-07T09:16:21;28.95;;;25.52;;
39218;SDS011;24934;52.752;6.964;2023-05-07T09:18:48;31.58;;;26.85;;
39218;SDS011;24934;52.752;6.964;2023-05-07T09:21:18;31.45;;;28.05;;
39218;SDS011;24934;52.752;6.964;2023-05-07T09:23:44;30.50;;;27.20;;
39218;SDS011;24934;52.752;6.964;2023-05-07T09:26:10;30.00;;;25.52;;
39218;SDS011;24934;52.752;6.964;2023-05-07T09:28:43;28.15;;;25.25;;
39218;SDS011;24934;52.752;6.964;2023-05-07T09:31:10;29.30;;;24.52;;
39218;SDS011;24934;52.752;6.964;2023-05-07T09:33:36;26.20;;;23.35;;
39218;SDS011;24934;52.752;6.964;2023-05-07T09:36:06;28.10;;;25.05;;
39218;SDS011;24934;52.752;6.964;2023-05-07T09:38:33;28.13;;;24.85;;
39218;SDS011;24934;52.752;6.964;2023-05-07T09:41:06;28.77;;;24.20;;
39218;SDS011;24934;52.752;6.964;2023-05-07T09:43:34;27.50;;;24.52;;
39218;SDS011;24934;52.752;6.964;2023-05-07T09:46:10;27.90;;;24.65;;
39218;SDS011;24934;52.752;6.964;2023-05-07T09:48:38;28.20;;;24.58;;
39218;SDS011;24934;52.752;6.964;2023-05-07T09:51:06;27.38;;;23.73;;
39218;SDS011;24934;52.752;6.964;2023-05-07T09:53:40;27.20;;;24.23;;
39218;SDS011;24934;52.752;6.964;2023-05-07T09:56:07;26.63;;;23.83;;
39218;SDS011;24934;52.752;6.964;2023-05-07T09:58:33;26.77;;;23.75;;
39218;SDS011;24934;52.752;6.964;2023-05-07T10:01:02;27.95;;;24.15;;
39218;SDS011;24934;52.752;6.964;2023-05-07T10:03:28;28.38;;;25.35;;
39218;SDS011;24934;52.752;6.964;2023-05-07T10:05:57;26.33;;;23.52;;
39218;SDS011;24934;52.752;6.964;2023-05-07T10:08:24;26.15;;;22.45;;
39218;SDS011;24934;52.752;6.964;2023-05-07T10:10:51;25.40;;;22.70;;
39218;SDS011;24934;52.752;6.964;2023-05-07T10:13:18;25.50;;;22.70;;
39218;SDS011;24934;52.752;6.964;2023-05-07T10:15:46;24.08;;;21.67;;
39218;SDS011;24934;52.752;6.964;2023-05-07T10:18:12;26.73;;;23.50;;
39218;SDS011;24934;52.752;6.964;2023-05-07T10:20:43;29.00;;;25.63;;
39218;SDS011;24934;52.752;6.964;2023-05-07T10:23:12;26.35;;;23.55;;
39218;SDS011;24934;52.752;6.964;2023-05-07T10:25:45;26.52;;;23.65;;
39218;SDS011;24934;52.752;6.964;2023-05-07T10:28:11;26.88;;;23.98;;
39218;SDS011;24934;52.752;6.964;2023-05-07T10:33:15;26.73;;;23.98;;
39218;SDS011;24934;52.752;6.964;2023-05-07T10:35:45;26.63;;;23.65;;
39218;SDS011;24934;52.752;6.964;2023-05-07T10:38:12;26.83;;;24.13;;
39218;SDS011;24934;52.752;6.964;2023-05-07T10:40:38;27.88;;;24.88;;
39218;SDS011;24934;52.752;6.964;2023-05-07T10:43:06;26.85;;;24.20;;
39218;SDS011;24934;52.752;6.964;2023-05-07T10:45:33;31.92;;;25.17;;
39218;SDS011;24934;52.752;6.964;2023-05-07T10:48:06;26.55;;;23.85;;
39218;SDS011;24934;52.752;6.964;2023-05-07T10:50:39;27.50;;;24.80;;
39218;SDS011;24934;52.752;6.964;2023-05-07T10:53:21;24.02;;;21.67;;
39218;SDS011;24934;52.752;6.964;2023-05-07T10:55:50;27.30;;;24.58;;
39218;SDS011;24934;52.752;6.964;2023-05-07T10:58:23;28.83;;;25.83;;
39218;SDS011;24934;52.752;6.964;2023-05-07T11:00:59;26.27;;;23.48;;
39218;SDS011;24934;52.752;6.964;2023-05-07T11:03:26;28.92;;;23.60;;
39218;SDS011;24934;52.752;6.964;2023-05-07T11:14:42;27.45;;;24.42;;
39218;SDS011;24934;52.752;6.964;2023-05-07T11:17:11;27.42;;;24.42;;
39218;SDS011;24934;52.752;6.964;2023-05-07T11:19:50;29.25;;;25.25;;
39218;SDS011;24934;52.752;6.964;2023-05-07T11:22:53;30.98;;;24.33;;
39218;SDS011;24934;52.752;6.964;2023-05-07T11:25:18;27.75;;;24.05;;
39218;SDS011;24934;52.752;6.964;2023-05-07T11:27:44;27.10;;;23.92;;
39218;SDS011;24934;52.752;6.964;2023-05-07T11:30:10;26.63;;;23.65;;
39218;SDS011;24934;52.752;6.964;2023-05-07T11:32:43;25.52;;;22.83;;
39218;SDS011;24934;52.752;6.964;2023-05-07T11:35:16;28.67;;;24.92;;
39218;SDS011;24934;52.752;6.964;2023-05-07T11:37:45;26.90;;;24.10;;
39218;SDS011;24934;52.752;6.964;2023-05-07T11:40:12;27.38;;;24.67;;
39218;SDS011;24934;52.752;6.964;2023-05-07T11:42:40;26.55;;;23.80;;
39218;SDS011;24934;52.752;6.964;2023-05-07T11:45:08;26.25;;;23.55;;
39218;SDS011;24934;52.752;6.964;2023-05-07T11:47:34;26.95;;;24.38;;
39218;SDS011;24934;52.752;6.964;2023-05-07T11:50:04;26.92;;;24.23;;
39218;SDS011;24934;52.752;6.964;2023-05-07T11:52:31;27.25;;;24.35;;
39218;SDS011;24934;52.752;6.964;2023-05-07T11:55:01;29.95;;;24.30;;
39218;SDS011;24934;52.752;6.964;2023-05-07T11:57:28;26.85;;;24.35;;
39218;SDS011;24934;52.752;6.964;2023-05-07T11:59:57;27.58;;;24.88;;
39218;SDS011;24934;52.752;6.964;2023-05-07T12:02:24;28.63;;;25.60;;
39218;SDS011;24934;52.752;6.964;2023-05-07T12:04:51;27.17;;;24.38;;
39218;SDS011;24934;52.752;6.964;2023-05-07T12:07:17;25.38;;;22.67;;
39218;SDS011;24934;52.752;6.964;2023-05-07T12:09:46;25.65;;;23.15;;
39218;SDS011;24934;52.752;6.964;2023-05-07T12:12:12;26.00;;;23.05;;
39218;SDS011;24934;52.752;6.964;2023-05-07T12:14:43;26.02;;;23.38;;
39218;SDS011;24934;52.752;6.964;2023-05-07T12:17:13;26.67;;;23.98;;
39218;SDS011;24934;52.752;6.964;2023-05-07T12:19:40;26.00;;;23.30;;
39218;SDS011;24934;52.752;6.964;2023-05-07T12:22:08;27.80;;;25.15;;
39218;SDS011;24934;52.752;6.964;2023-05-07T12:24:47;27.15;;;24.58;;
39218;SDS011;24934;52.752;6.964;2023-05-07T12:27:25;25.15;;;22.75;;
39218;SDS011;24934;52.752;6.964;2023-05-07T12:29:51;27.45;;;24.92;;
39218;SDS011;24934;52.752;6.964;2023-05-07T12:32:18;26.92;;;24.13;;
39218;SDS011;24934;52.752;6.964;2023-05-07T12:34:44;27.65;;;24.92;;
39218;SDS011;24934;52.752;6.964;2023-05-07T12:37:11;26.08;;;23.58;;
39218;SDS011;24934;52.752;6.964;2023-05-07T12:39:50;27.05;;;24.45;;
39218;SDS011;24934;52.752;6.964;2023-05-07T12:42:32;25.33;;;22.88;;
39218;SDS011;24934;52.752;6.964;2023-05-07T12:45:07;26.02;;;23.45;;
39218;SDS011;24934;52.752;6.964;2023-05-07T12:47:33;26.33;;;23.73;;
39218;SDS011;24934;52.752;6.964;2023-05-07T12:49:59;24.77;;;22.48;;
39218;SDS011;24934;52.752;6.964;2023-05-07T12:52:24;25.23;;;22.67;;
39218;SDS011;24934;52.752;6.964;2023-05-07T12:54:50;24.52;;;22.23;;
39218;SDS011;24934;52.752;6.964;2023-05-07T12:57:19;23.65;;;21.45;;
39218;SDS011;24934;52.752;6.964;2023-05-07T12:59:45;23.70;;;21.50;;
39218;SDS011;24934;52.752;6.964;2023-05-07T13:02:14;22.75;;;20.65;;
39218;SDS011;24934;52.752;6.964;2023-05-07T13:04:40;22.15;;;19.55;;
39218;SDS011;24934;52.752;6.964;2023-05-07T13:07:06;21.98;;;19.77;;
39218;SDS011;24934;52.752;6.964;2023-05-07T13:09:34;23.30;;;20.98;;
39218;SDS011;24934;52.752;6.964;2023-05-07T13:12:01;22.17;;;20.08;;
39218;SDS011;24934;52.752;6.964;2023-05-07T13:14:27;22.42;;;20.30;;
39218;SDS011;24934;52.752;6.964;2023-05-07T13:16:53;22.10;;;19.98;;
39218;SDS011;24934;52.752;6.964;2023-05-07T13:19:18;21.67;;;19.52;;
39218;SDS011;24934;52.752;6.964;2023-05-07T13:21:44;22.77;;;20.67;;
39218;SDS011;24934;52.752;6.964;2023-05-07T13:24:10;22.13;;;19.92;;
39218;SDS011;24934;52.752;6.964;2023-05-07T13:26:37;22.38;;;20.27;;
39218;SDS011;24934;52.752;6.964;2023-05-07T13:29:02;21.58;;;19.42;;
39218;SDS011;24934;52.752;6.964;2023-05-07T13:31:28;20.73;;;18.73;;
39218;SDS011;24934;52.752;6.964;2023-05-07T13:33:54;21.23;;;19.08;;
39218;SDS011;24934;52.752;6.964;2023-05-07T13:36:21;21.52;;;19.45;;
39218;SDS011;24934;52.752;6.964;2023-05-07T13:38:46;20.75;;;18.55;;
39218;SDS011;24934;52.752;6.964;2023-05-07T13:41:12;19.50;;;17.58;;
39218;SDS011;24934;52.752;6.964;2023-05-07T13:43:39;20.75;;;18.83;;
39218;SDS011;24934;52.752;6.964;2023-05-07T13:46:04;22.27;;;20.17;;
39218;SDS011;24934;52.752;6.964;2023-05-07T13:48:32;23.60;;;21.40;;
39218;SDS011;24934;52.752;6.964;2023-05-07T13:50:58;22.58;;;20.40;;
39218;SDS011;24934;52.752;6.964;2023-05-07T13:53:23;21.50;;;19.60;;
39218;SDS011;24934;52.752;6.964;2023-05-07T13:55:52;22.50;;;20.50;;
39218;SDS011;24934;52.752;6.964;2023-05-07T13:58:17;21.45;;;19.45;;
39218;SDS011;24934;52.752;6.964;2023-05-07T14:00:44;20.88;;;19.08;;
39218;SDS011;24934;52.752;6.964;2023-05-07T14:03:10;20.40;;;18.50;;
39218;SDS011;24934;52.752;6.964;2023-05-07T14:05:36;18.17;;;16.48;;
39218;SDS011;24934;52.752;6.964;2023-05-07T14:08:01;19.52;;;17.83;;
39218;SDS011;24934;52.752;6.964;2023-05-07T14:10:28;17.88;;;15.75;;
39218;SDS011;24934;52.752;6.964;2023-05-07T14:12:54;17.52;;;15.82;;
39218;SDS011;24934;52.752;6.964;2023-05-07T14:15:21;16.30;;;14.80;;
39218;SDS011;24934;52.752;6.964;2023-05-07T14:17:48;17.10;;;15.52;;
39218;SDS011;24934;52.752;6.964;2023-05-07T14:20:14;18.52;;;16.77;;
39218;SDS011;24934;52.752;6.964;2023-05-07T14:22:39;16.40;;;14.85;;
39218;SDS011;24934;52.752;6.964;2023-05-07T14:25:05;16.50;;;15.00;;
39218;SDS011;24934;52.752;6.964;2023-05-07T14:27:31;16.75;;;15.15;;
39218;SDS011;24934;52.752;6.964;2023-05-07T14:29:57;17.55;;;15.85;;
39218;SDS011;24934;52.752;6.964;2023-05-07T14:32:26;17.90;;;16.20;;